Viola, Arkansas
Current Conditions -  °F | °C
As of 1:53 AM on Friday 24 Oct 2014 (Local Time) from KBPK Reporting Station
Clear Clear  
Wind Chill: 51°   Ceiling: Unl
Heat Index: 51°   Visibility: 9mi
Dew Point: 49°   Wind: 0mph
Humidity: 92%   Direction: NA
Pressure: 30.13"   Gusts: NA
Location:  36.4°N, 91.98°W
Report Text: KBPK 240653Z AUTO 00000KT 9SM CLR 11/09 A3013 RMK AO2 SLP199 T01060094
Loading
Personal Weather Stations






























Interactive Weather Map
Tropical Storm Tracking
New forecast layout! Learn more

10-Day Weather Forecast

Advertisements
Track Severe Weather on mobile